Fecha, hora, temperatura, viento dirección y velocidad, humedad y presión.

  • 22-05-2019 16:00:00 | 27.70°C | Oeste |10.00 km/h | 22.00% | 948.80 hPa
  • 22-05-2019 15:00:00 | 26.80°C | Noroeste |9.00 km/h | 23.00% | 949.30 hPa
  • 22-05-2019 14:00:00 | 26.40°C | Noroeste |11.00 km/h | 24.00% | 949.70 hPa
  • 22-05-2019 13:00:00 | 24.80°C | Sudoeste |8.00 km/h | 29.00% | 950.20 hPa
  • 22-05-2019 12:00:00 | 22.70°C | Sur |9.00 km/h | 37.00% | 950.40 hPa
  • 22-05-2019 11:00:00 | 20.20°C | Sur |6.00 km/h | 42.00% | 950.60 hPa
  • 22-05-2019 10:00:00 | 18.20°C | Sur |6.00 km/h | 44.00% | 950.60 hPa
  • 22-05-2019 09:00:00 | 14.50°C | Norte |8.00 km/h | 52.00% | 950.40 hPa
  • 22-05-2019 08:00:00 | 10.40°C | Norte |4.00 km/h | 67.00% | 950.40 hPa
  • 22-05-2019 07:00:00 | 10.00°C | Calma |0.00 km/h | 64.00% | 950.00 hPa
  • 22-05-2019 06:00:00 | 11.10°C | Noroeste |7.00 km/h | 60.00% | 950.00 hPa
  • 22-05-2019 05:00:00 | 12.10°C | Norte |6.00 km/h | 57.00% | 949.90 hPa
  • 22-05-2019 04:00:00 | 13.10°C | Norte |6.00 km/h | 52.00% | 949.70 hPa
  • 22-05-2019 03:00:00 | 15.00°C | Norte |5.00 km/h | 46.00% | 949.50 hPa
  • 22-05-2019 02:00:00 | 15.10°C | Nordeste |9.00 km/h | 46.00% | 949.40 hPa
  • 22-05-2019 01:00:00 | 16.70°C | Noroeste |14.00 km/h | 42.00% | 948.70 hPa
  • 22-05-2019 00:00:00 | 17.20°C | Norte |6.00 km/h | 40.00% | 948.40 hPa
  • 21-05-2019 23:00:00 | 19.40°C | Nordeste |6.00 km/h | 35.00% | 948.10 hPa
  • 21-05-2019 22:00:00 | 21.30°C | Nordeste |3.00 km/h | 30.00% | 947.30 hPa
  • 21-05-2019 21:00:00 | 23.30°C | Norte |10.00 km/h | 26.00% | 946.90 hPa
  • 21-05-2019 20:00:00 | 23.80°C | Norte |15.00 km/h | 25.00% | 946.20 hPa
  • 21-05-2019 19:00:00 | 24.20°C | Norte |21.00 km/h | 24.00% | 946.00 hPa
  • 21-05-2019 18:00:00 | 26.10°C | Este |10.00 km/h | 20.00% | 946.00 hPa
  • 21-05-2019 17:00:00 | 25.90°C | Sudeste |11.00 km/h | 20.00% | 946.30 hPa
    • diseño web asturias Información sobre el estado de las mareas, altura de la marejada, temperatura del agua y otros datos de Gijón en Asturias.

      Surf Gijón